<?xml version="1.0" encoding="UTF-8" standalone="no" ?>
<gpx xmlns="http://www.topografix.com/GPX/1/1" xmlns:xsi="http://www.w3.org/2001/XMLSchema-instance" xsi:schemaLocation="http://www.topografix.com/GPX/1/1 http://www.topografix.com/GPX/1/1/gpx.xsd" version="1.1" creator="VisuGPX - https://www.visugpx.com">
  <metadata>
    <name>07 - Saint-Félicien circuits en partant de l'Etape cavalière du Balayn </name>
    <desc><![CDATA[Ces itinéraires font partie de la collection de EquiLiberté : www.equiliberte.org Ils sont proposés par 07410 L'Étape Cavalière du Balayn à St Félicien. http://etapecavalieredubalayn.fr/index.php/contact-reservation/ Circuits NON ACCESSIBLE aux attelages ]]></desc>
  </metadata>
  <trk>
    <name><![CDATA[07 - St Félicien : Boucle de Préaux : De la Vivance au Furon]]></name>
    <trkseg>
      <trkpt lat="45.09397" lon="4.65203">
        <ele>619</ele>
        <time>2019-10-12T15:44:36 02:00</time>
      </trkpt>
      <trkpt lat="45.09397" lon="4.65203">
        <ele>619</ele>
        <time>2019-10-12T15:44:36 02:00</time>
      </trkpt>
      <trkpt lat="45.09442" lon="4.65233">
        <ele>614</ele>
        <time>2019-10-12T15:44:41 02:00</time>
      </trkpt>
      <trkpt lat="45.09472" lon="4.65174">
        <ele>612</ele>
        <time>2019-10-12T15:44:46 02:00</time>
      </trkpt>
      <trkpt lat="45.09515" lon="4.65116">
        <ele>612</ele>
        <time>2019-10-12T15:44:51 02:00</time>
      </trkpt>
      <trkpt lat="45.09582" lon="4.65048">
        <ele>611</ele>
        <time>2019-10-12T15:44:56 02:00</time>
      </trkpt>
      <trkpt lat="45.09639" lon="4.64894">
        <ele>616</ele>
        <time>2019-10-12T15:45:01 02:00</time>
      </trkpt>
      <trkpt lat="45.09575" lon="4.64837">
        <ele>623</ele>
        <time>2019-10-12T15:45:06 02:00</time>
      </trkpt>
      <trkpt lat="45.09569" lon="4.64724">
        <ele>625</ele>
        <time>2019-10-12T15:45:11 02:00</time>
      </trkpt>
      <trkpt lat="45.09558" lon="4.64678">
        <ele>625</ele>
        <time>2019-10-12T15:45:16 02:00</time>
      </trkpt>
      <trkpt lat="45.09545" lon="4.64641">
        <ele>624</ele>
        <time>2019-10-12T15:45:21 02:00</time>
      </trkpt>
      <trkpt lat="45.09541" lon="4.64601">
        <ele>620</ele>
        <time>2019-10-12T15:45:26 02:00</time>
      </trkpt>
      <trkpt lat="45.096" lon="4.64598">
        <ele>615</ele>
        <time>2019-10-12T15:45:31 02:00</time>
      </trkpt>
      <trkpt lat="45.09639" lon="4.64606">
        <ele>616</ele>
        <time>2019-10-12T15:45:36 02:00</time>
      </trkpt>
      <trkpt lat="45.09643" lon="4.64547">
        <ele>613</ele>
        <time>2019-10-12T15:45:41 02:00</time>
      </trkpt>
      <trkpt lat="45.09654" lon="4.64508">
        <ele>612</ele>
        <time>2019-10-12T15:45:46 02:00</time>
      </trkpt>
      <trkpt lat="45.09661" lon="4.64473">
        <ele>610</ele>
        <time>2019-10-12T15:45:51 02:00</time>
      </trkpt>
      <trkpt lat="45.09667" lon="4.64442">
        <ele>608</ele>
        <time>2019-10-12T15:45:56 02:00</time>
      </trkpt>
      <trkpt lat="45.09699" lon="4.64375">
        <ele>608</ele>
        <time>2019-10-12T15:46:01 02:00</time>
      </trkpt>
      <trkpt lat="45.097" lon="4.64349">
        <ele>606</ele>
        <time>2019-10-12T15:46:06 02:00</time>
      </trkpt>
      <trkpt lat="45.09655" lon="4.64228">
        <ele>591</ele>
        <time>2019-10-12T15:46:11 02:00</time>
      </trkpt>
      <trkpt lat="45.09661" lon="4.64189">
        <ele>588</ele>
        <time>2019-10-12T15:46:16 02:00</time>
      </trkpt>
      <trkpt lat="45.0969" lon="4.64161">
        <ele>592</ele>
        <time>2019-10-12T15:46:21 02:00</time>
      </trkpt>
      <trkpt lat="45.09709" lon="4.64129">
        <ele>592</ele>
        <time>2019-10-12T15:46:26 02:00</time>
      </trkpt>
      <trkpt lat="45.0972" lon="4.64104">
        <ele>592</ele>
        <time>2019-10-12T15:46:31 02:00</time>
      </trkpt>
      <trkpt lat="45.09721" lon="4.64062">
        <ele>589</ele>
        <time>2019-10-12T15:46:36 02:00</time>
      </trkpt>
      <trkpt lat="45.09711" lon="4.64018">
        <ele>586</ele>
        <time>2019-10-12T15:46:41 02:00</time>
      </trkpt>
      <trkpt lat="45.09689" lon="4.63987">
        <ele>580</ele>
        <time>2019-10-12T15:46:46 02:00</time>
      </trkpt>
      <trkpt lat="45.09684" lon="4.63855">
        <ele>579</ele>
        <time>2019-10-12T15:46:51 02:00</time>
      </trkpt>
      <trkpt lat="45.09688" lon="4.63782">
        <ele>577</ele>
        <time>2019-10-12T15:46:56 02:00</time>
      </trkpt>
      <trkpt lat="45.09693" lon="4.63717">
        <ele>575</ele>
        <time>2019-10-12T15:47:01 02:00</time>
      </trkpt>
      <trkpt lat="45.09709" lon="4.63685">
        <ele>575</ele>
        <time>2019-10-12T15:47:06 02:00</time>
      </trkpt>
      <trkpt lat="45.09726" lon="4.63649">
        <ele>573</ele>
        <time>2019-10-12T15:47:11 02:00</time>
      </trkpt>
      <trkpt lat="45.09724" lon="4.6364">
        <ele>572</ele>
        <time>2019-10-12T15:47:16 02:00</time>
      </trkpt>
      <trkpt lat="45.09777" lon="4.63594">
        <ele>573</ele>
        <time>2019-10-12T15:47:21 02:00</time>
      </trkpt>
      <trkpt lat="45.09785" lon="4.63551">
        <ele>574</ele>
        <time>2019-10-12T15:47:26 02:00</time>
      </trkpt>
      <trkpt lat="45.09771" lon="4.63473">
        <ele>572</ele>
        <time>2019-10-12T15:47:31 02:00</time>
      </trkpt>
      <trkpt lat="45.09778" lon="4.63401">
        <ele>573</ele>
        <time>2019-10-12T15:47:36 02:00</time>
      </trkpt>
      <trkpt lat="45.09793" lon="4.63352">
        <ele>573</ele>
        <time>2019-10-12T15:47:41 02:00</time>
      </trkpt>
      <trkpt lat="45.09815" lon="4.6331">
        <ele>574</ele>
        <time>2019-10-12T15:47:46 02:00</time>
      </trkpt>
      <trkpt lat="45.09837" lon="4.63244">
        <ele>571</ele>
        <time>2019-10-12T15:47:51 02:00</time>
      </trkpt>
      <trkpt lat="45.09854" lon="4.63215">
        <ele>569</ele>
        <time>2019-10-12T15:47:56 02:00</time>
      </trkpt>
      <trkpt lat="45.09867" lon="4.63192">
        <ele>567</ele>
        <time>2019-10-12T15:48:01 02:00</time>
      </trkpt>
      <trkpt lat="45.09915" lon="4.63154">
        <ele>569</ele>
        <time>2019-10-12T15:48:06 02:00</time>
      </trkpt>
      <trkpt lat="45.09977" lon="4.63051">
        <ele>563</ele>
        <time>2019-10-12T15:48:11 02:00</time>
      </trkpt>
      <trkpt lat="45.10012" lon="4.63027">
        <ele>568</ele>
        <time>2019-10-12T15:48:16 02:00</time>
      </trkpt>
      <trkpt lat="45.10013" lon="4.62969">
        <ele>568</ele>
        <time>2019-10-12T15:48:21 02:00</time>
      </trkpt>
      <trkpt lat="45.09993" lon="4.62934">
        <ele>568</ele>
        <time>2019-10-12T15:48:26 02:00</time>
      </trkpt>
      <trkpt lat="45.0997" lon="4.6292">
        <ele>565</ele>
        <time>2019-10-12T15:48:31 02:00</time>
      </trkpt>
      <trkpt lat="45.09954" lon="4.62898">
        <ele>566</ele>
        <time>2019-10-12T15:48:36 02:00</time>
      </trkpt>
      <trkpt lat="45.0991" lon="4.62843">
        <ele>568</ele>
        <time>2019-10-12T15:48:41 02:00</time>
      </trkpt>
      <trkpt lat="45.09858" lon="4.62755">
        <ele>563</ele>
        <time>2019-10-12T15:48:46 02:00</time>
      </trkpt>
      <trkpt lat="45.0985" lon="4.62723">
        <ele>560</ele>
        <time>2019-10-12T15:48:51 02:00</time>
      </trkpt>
      <trkpt lat="45.09853" lon="4.62699">
        <ele>561</ele>
        <time>2019-10-12T15:48:56 02:00</time>
      </trkpt>
      <trkpt lat="45.09851" lon="4.62681">
        <ele>560</ele>
        <time>2019-10-12T15:49:01 02:00</time>
      </trkpt>
      <trkpt lat="45.09841" lon="4.62628">
        <ele>553</ele>
        <time>2019-10-12T15:49:06 02:00</time>
      </trkpt>
      <trkpt lat="45.0984" lon="4.62588">
        <ele>551</ele>
        <time>2019-10-12T15:49:11 02:00</time>
      </trkpt>
      <trkpt lat="45.09842" lon="4.62542">
        <ele>550</ele>
        <time>2019-10-12T15:49:16 02:00</time>
      </trkpt>
      <trkpt lat="45.09849" lon="4.62509">
        <ele>550</ele>
        <time>2019-10-12T15:49:21 02:00</time>
      </trkpt>
      <trkpt lat="45.098" lon="4.6252">
        <ele>554</ele>
        <time>2019-10-12T15:49:26 02:00</time>
      </trkpt>
      <trkpt lat="45.09812" lon="4.62495">
        <ele>553</ele>
        <time>2019-10-12T15:49:31 02:00</time>
      </trkpt>
      <trkpt lat="45.09862" lon="4.62437">
        <ele>559</ele>
        <time>2019-10-12T15:49:36 02:00</time>
      </trkpt>
      <trkpt lat="45.09878" lon="4.62417">
        <ele>557</ele>
        <time>2019-10-12T15:49:41 02:00</time>
      </trkpt>
      <trkpt lat="45.09902" lon="4.62403">
        <ele>556</ele>
        <time>2019-10-12T15:49:46 02:00</time>
      </trkpt>
      <trkpt lat="45.09953" lon="4.62374">
        <ele>559</ele>
        <time>2019-10-12T15:49:51 02:00</time>
      </trkpt>
      <trkpt lat="45.09988" lon="4.62339">
        <ele>560</ele>
        <time>2019-10-12T15:49:56 02:00</time>
      </trkpt>
      <trkpt lat="45.10028" lon="4.62305">
        <ele>563</ele>
        <time>2019-10-12T15:50:01 02:00</time>
      </trkpt>
      <trkpt lat="45.10069" lon="4.62283">
        <ele>563</ele>
        <time>2019-10-12T15:50:06 02:00</time>
      </trkpt>
      <trkpt lat="45.10112" lon="4.62201">
        <ele>572</ele>
        <time>2019-10-12T15:50:11 02:00</time>
      </trkpt>
      <trkpt lat="45.10153" lon="4.62111">
        <ele>579</ele>
        <time>2019-10-12T15:50:16 02:00</time>
      </trkpt>
      <trkpt lat="45.10169" lon="4.62069">
        <ele>584</ele>
        <time>2019-10-12T15:50:21 02:00</time>
      </trkpt>
      <trkpt lat="45.10184" lon="4.62044">
        <ele>587</ele>
        <time>2019-10-12T15:50:26 02:00</time>
      </trkpt>
      <trkpt lat="45.1026" lon="4.61979">
        <ele>587</ele>
        <time>2019-10-12T15:50:31 02:00</time>
      </trkpt>
      <trkpt lat="45.1028" lon="4.61955">
        <ele>591</ele>
        <time>2019-10-12T15:50:36 02:00</time>
      </trkpt>
      <trkpt lat="45.10311" lon="4.61949">
        <ele>592</ele>
        <time>2019-10-12T15:50:41 02:00</time>
      </trkpt>
      <trkpt lat="45.10317" lon="4.61942">
        <ele>593</ele>
        <time>2019-10-12T15:50:46 02:00</time>
      </trkpt>
      <trkpt lat="45.10351" lon="4.61939">
        <ele>591</ele>
        <time>2019-10-12T15:50:51 02:00</time>
      </trkpt>
      <trkpt lat="45.10381" lon="4.61924">
        <ele>589</ele>
        <time>2019-10-12T15:50:56 02:00</time>
      </trkpt>
      <trkpt lat="45.10392" lon="4.61881">
        <ele>590</ele>
        <time>2019-10-12T15:51:01 02:00</time>
      </trkpt>
      <trkpt lat="45.10396" lon="4.61832">
        <ele>591</ele>
        <time>2019-10-12T15:51:06 02:00</time>
      </trkpt>
      <trkpt lat="45.104" lon="4.61801">
        <ele>589</ele>
        <time>2019-10-12T15:51:11 02:00</time>
      </trkpt>
      <trkpt lat="45.10396" lon="4.61763">
        <ele>589</ele>
        <time>2019-10-12T15:51:16 02:00</time>
      </trkpt>
      <trkpt lat="45.10397" lon="4.61755">
        <ele>589</ele>
        <time>2019-10-12T15:51:21 02:00</time>
      </trkpt>
      <trkpt lat="45.10416" lon="4.61756">
        <ele>584</ele>
        <time>2019-10-12T15:51:26 02:00</time>
      </trkpt>
      <trkpt lat="45.10433" lon="4.6177">
        <ele>583</ele>
        <time>2019-10-12T15:51:31 02:00</time>
      </trkpt>
      <trkpt lat="45.1046" lon="4.61819">
        <ele>580</ele>
        <time>2019-10-12T15:51:36 02:00</time>
      </trkpt>
      <trkpt lat="45.10516" lon="4.61853">
        <ele>574</ele>
        <time>2019-10-12T15:51:41 02:00</time>
      </trkpt>
      <trkpt lat="45.10572" lon="4.61875">
        <ele>579</ele>
        <time>2019-10-12T15:51:46 02:00</time>
      </trkpt>
      <trkpt lat="45.10594" lon="4.61879">
        <ele>581</ele>
        <time>2019-10-12T15:51:51 02:00</time>
      </trkpt>
      <trkpt lat="45.10604" lon="4.61887">
        <ele>581</ele>
        <time>2019-10-12T15:51:56 02:00</time>
      </trkpt>
      <trkpt lat="45.10639" lon="4.61903">
        <ele>582</ele>
        <time>2019-10-12T15:52:01 02:00</time>
      </trkpt>
      <trkpt lat="45.10645" lon="4.61925">
        <ele>581</ele>
        <time>2019-10-12T15:52:06 02:00</time>
      </trkpt>
      <trkpt lat="45.1064" lon="4.61937">
        <ele>582</ele>
        <time>2019-10-12T15:52:11 02:00</time>
      </trkpt>
      <trkpt lat="45.10631" lon="4.61974">
        <ele>585</ele>
        <time>2019-10-12T15:52:16 02:00</time>
      </trkpt>
      <trkpt lat="45.10636" lon="4.61995">
        <ele>586</ele>
        <time>2019-10-12T15:52:21 02:00</time>
      </trkpt>
      <trkpt lat="45.10691" lon="4.62085">
        <ele>598</ele>
        <time>2019-10-12T15:52:26 02:00</time>
      </trkpt>
      <trkpt lat="45.10739" lon="4.6214">
        <ele>604</ele>
        <time>2019-10-12T15:52:31 02:00</time>
      </trkpt>
      <trkpt lat="45.10804" lon="4.62252">
        <ele>618</ele>
        <time>2019-10-12T15:52:36 02:00</time>
      </trkpt>
      <trkpt lat="45.10829" lon="4.623">
        <ele>625</ele>
        <time>2019-10-12T15:52:41 02:00</time>
      </trkpt>
      <trkpt lat="45.10845" lon="4.62356">
        <ele>631</ele>
        <time>2019-10-12T15:52:46 02:00</time>
      </trkpt>
      <trkpt lat="45.10858" lon="4.62403">
        <ele>635</ele>
        <time>2019-10-12T15:52:51 02:00</time>
      </trkpt>
      <trkpt lat="45.10881" lon="4.62451">
        <ele>639</ele>
        <time>2019-10-12T15:52:56 02:00</time>
      </trkpt>
      <trkpt lat="45.1092" lon="4.62492">
        <ele>637</ele>
        <time>2019-10-12T15:53:01 02:00</time>
      </trkpt>
      <trkpt lat="45.10951" lon="4.62534">
        <ele>638</ele>
        <time>2019-10-12T15:53:06 02:00</time>
      </trkpt>
      <trkpt lat="45.10993" lon="4.62605">
        <ele>645</ele>
        <time>2019-10-12T15:53:11 02:00</time>
      </trkpt>
      <trkpt lat="45.11017" lon="4.62643">
        <ele>650</ele>
        <time>2019-10-12T15:53:16 02:00</time>
      </trkpt>
      <trkpt lat="45.11032" lon="4.62646">
        <ele>648</ele>
        <time>2019-10-12T15:53:21 02:00</time>
      </trkpt>
      <trkpt lat="45.11048" lon="4.62638">
        <ele>642</ele>
        <time>2019-10-12T15:53:26 02:00</time>
      </trkpt>
      <trkpt lat="45.11079" lon="4.62641">
        <ele>636</ele>
        <time>2019-10-12T15:53:31 02:00</time>
      </trkpt>
      <trkpt lat="45.11129" lon="4.6269">
        <ele>639</ele>
        <time>2019-10-12T15:53:36 02:00</time>
      </trkpt>
      <trkpt lat="45.11164" lon="4.62683">
        <ele>632</ele>
        <time>2019-10-12T15:53:41 02:00</time>
      </trkpt>
      <trkpt lat="45.11191" lon="4.62726">
        <ele>638</ele>
        <time>2019-10-12T15:53:46 02:00</time>
      </trkpt>
      <trkpt lat="45.11212" lon="4.62777">
        <ele>640</ele>
        <time>2019-10-12T15:53:51 02:00</time>
      </trkpt>
      <trkpt lat="45.11239" lon="4.62773">
        <ele>638</ele>
        <time>2019-10-12T15:53:56 02:00</time>
      </trkpt>
      <trkpt lat="45.11229" lon="4.6271">
        <ele>638</ele>
        <time>2019-10-12T15:54:01 02:00</time>
      </trkpt>
      <trkpt lat="45.11239" lon="4.62647">
        <ele>640</ele>
        <time>2019-10-12T15:54:06 02:00</time>
      </trkpt>
      <trkpt lat="45.11234" lon="4.62589">
        <ele>638</ele>
        <time>2019-10-12T15:54:11 02:00</time>
      </trkpt>
      <trkpt lat="45.1126" lon="4.62536">
        <ele>642</ele>
        <time>2019-10-12T15:54:16 02:00</time>
      </trkpt>
      <trkpt lat="45.11254" lon="4.626">
        <ele>643</ele>
        <time>2019-10-12T15:54:21 02:00</time>
      </trkpt>
      <trkpt lat="45.1127" lon="4.62672">
        <ele>647</ele>
        <time>2019-10-12T15:54:26 02:00</time>
      </trkpt>
      <trkpt lat="45.11278" lon="4.62661">
        <ele>650</ele>
        <time>2019-10-12T15:54:31 02:00</time>
      </trkpt>
      <trkpt lat="45.11267" lon="4.6262">
        <ele>647</ele>
        <time>2019-10-12T15:54:36 02:00</time>
      </trkpt>
      <trkpt lat="45.11273" lon="4.62585">
        <ele>648</ele>
        <time>2019-10-12T15:54:41 02:00</time>
      </trkpt>
      <trkpt lat="45.1133" lon="4.62515">
        <ele>656</ele>
        <time>2019-10-12T15:54:46 02:00</time>
      </trkpt>
      <trkpt lat="45.11396" lon="4.62452">
        <ele>669</ele>
        <time>2019-10-12T15:54:51 02:00</time>
      </trkpt>
      <trkpt lat="45.11399" lon="4.62435">
        <ele>670</ele>
        <time>2019-10-12T15:54:56 02:00</time>
      </trkpt>
      <trkpt lat="45.11378" lon="4.62412">
        <ele>666</ele>
        <time>2019-10-12T15:55:01 02:00</time>
      </trkpt>
      <trkpt lat="45.11348" lon="4.62398">
        <ele>662</ele>
        <time>2019-10-12T15:55:06 02:00</time>
      </trkpt>
      <trkpt lat="45.11321" lon="4.62367">
        <ele>662</ele>
        <time>2019-10-12T15:55:11 02:00</time>
      </trkpt>
      <trkpt lat="45.11297" lon="4.62306">
        <ele>665</ele>
        <time>2019-10-12T15:55:16 02:00</time>
      </trkpt>
      <trkpt lat="45.11289" lon="4.62241">
        <ele>668</ele>
        <time>2019-10-12T15:55:21 02:00</time>
      </trkpt>
      <trkpt lat="45.11298" lon="4.62159">
        <ele>675</ele>
        <time>2019-10-12T15:55:26 02:00</time>
      </trkpt>
      <trkpt lat="45.11291" lon="4.62064">
        <ele>682</ele>
        <time>2019-10-12T15:55:31 02:00</time>
      </trkpt>
      <trkpt lat="45.11242" lon="4.61976">
        <ele>683</ele>
        <time>2019-10-12T15:55:36 02:00</time>
      </trkpt>
      <trkpt lat="45.11193" lon="4.61928">
        <ele>681</ele>
        <time>2019-10-12T15:55:41 02:00</time>
      </trkpt>
      <trkpt lat="45.1116" lon="4.61892">
        <ele>681</ele>
        <time>2019-10-12T15:55:46 02:00</time>
      </trkpt>
      <trkpt lat="45.11142" lon="4.61833">
        <ele>688</ele>
        <time>2019-10-12T15:55:51 02:00</time>
      </trkpt>
      <trkpt lat="45.11201" lon="4.61865">
        <ele>690</ele>
        <time>2019-10-12T15:55:56 02:00</time>
      </trkpt>
      <trkpt lat="45.11222" lon="4.61883">
        <ele>691</ele>
        <time>2019-10-12T15:56:01 02:00</time>
      </trkpt>
      <trkpt lat="45.11353" lon="4.61957">
        <ele>710</ele>
        <time>2019-10-12T15:56:06 02:00</time>
      </trkpt>
      <trkpt lat="45.11418" lon="4.61992">
        <ele>722</ele>
        <time>2019-10-12T15:56:11 02:00</time>
      </trkpt>
      <trkpt lat="45.1145" lon="4.61993">
        <ele>727</ele>
        <time>2019-10-12T15:56:16 02:00</time>
      </trkpt>
      <trkpt lat="45.11469" lon="4.62005">
        <ele>730</ele>
        <time>2019-10-12T15:56:21 02:00</time>
      </trkpt>
      <trkpt lat="45.11601" lon="4.62017">
        <ele>748</ele>
        <time>2019-10-12T15:56:26 02:00</time>
      </trkpt>
      <trkpt lat="45.11651" lon="4.62007">
        <ele>756</ele>
        <time>2019-10-12T15:56:31 02:00</time>
      </trkpt>
      <trkpt lat="45.11702" lon="4.62014">
        <ele>765</ele>
        <time>2019-10-12T15:56:36 02:00</time>
      </trkpt>
      <trkpt lat="45.11709" lon="4.62021">
        <ele>767</ele>
        <time>2019-10-12T15:56:41 02:00</time>
      </trkpt>
      <trkpt lat="45.11747" lon="4.62024">
        <ele>774</ele>
        <time>2019-10-12T15:56:46 02:00</time>
      </trkpt>
      <trkpt lat="45.11791" lon="4.6204">
        <ele>776</ele>
        <time>2019-10-12T15:56:51 02:00</time>
      </trkpt>
      <trkpt lat="45.11811" lon="4.62049">
        <ele>778</ele>
        <time>2019-10-12T15:56:56 02:00</time>
      </trkpt>
      <trkpt lat="45.11826" lon="4.62067">
        <ele>781</ele>
        <time>2019-10-12T15:57:01 02:00</time>
      </trkpt>
      <trkpt lat="45.11853" lon="4.62111">
        <ele>786</ele>
        <time>2019-10-12T15:57:06 02:00</time>
      </trkpt>
      <trkpt lat="45.11862" lon="4.62126">
        <ele>788</ele>
        <time>2019-10-12T15:57:11 02:00</time>
      </trkpt>
      <trkpt lat="45.11889" lon="4.6214">
        <ele>788</ele>
        <time>2019-10-12T15:57:16 02:00</time>
      </trkpt>
      <trkpt lat="45.11943" lon="4.62152">
        <ele>786</ele>
        <time>2019-10-12T15:57:21 02:00</time>
      </trkpt>
      <trkpt lat="45.12047" lon="4.62232">
        <ele>800</ele>
        <time>2019-10-12T15:57:26 02:00</time>
      </trkpt>
      <trkpt lat="45.12102" lon="4.62255">
        <ele>803</ele>
        <time>2019-10-12T15:57:31 02:00</time>
      </trkpt>
      <trkpt lat="45.12143" lon="4.62287">
        <ele>808</ele>
        <time>2019-10-12T15:57:36 02:00</time>
      </trkpt>
      <trkpt lat="45.12179" lon="4.62328">
        <ele>812</ele>
        <time>2019-10-12T15:57:41 02:00</time>
      </trkpt>
      <trkpt lat="45.12183" lon="4.62343">
        <ele>812</ele>
        <time>2019-10-12T15:57:46 02:00</time>
      </trkpt>
      <trkpt lat="45.12202" lon="4.62358">
        <ele>812</ele>
        <time>2019-10-12T15:57:51 02:00</time>
      </trkpt>
      <trkpt lat="45.12232" lon="4.62373">
        <ele>809</ele>
        <time>2019-10-12T15:57:56 02:00</time>
      </trkpt>
      <trkpt lat="45.12299" lon="4.62386">
        <ele>807</ele>
        <time>2019-10-12T15:58:01 02:00</time>
      </trkpt>
      <trkpt lat="45.12327" lon="4.62378">
        <ele>811</ele>
        <time>2019-10-12T15:58:06 02:00</time>
      </trkpt>
      <trkpt lat="45.12351" lon="4.62383">
        <ele>812</ele>
        <time>2019-10-12T15:58:11 02:00</time>
      </trkpt>
      <trkpt lat="45.12435" lon="4.62455">
        <ele>802</ele>
        <time>2019-10-12T15:58:16 02:00</time>
      </trkpt>
      <trkpt lat="45.12515" lon="4.62483">
        <ele>798</ele>
        <time>2019-10-12T15:58:21 02:00</time>
      </trkpt>
      <trkpt lat="45.12569" lon="4.62458">
        <ele>790</ele>
        <time>2019-10-12T15:58:26 02:00</time>
      </trkpt>
      <trkpt lat="45.12615" lon="4.62418">
        <ele>783</ele>
        <time>2019-10-12T15:58:31 02:00</time>
      </trkpt>
      <trkpt lat="45.12628" lon="4.62412">
        <ele>780</ele>
        <time>2019-10-12T15:58:36 02:00</time>
      </trkpt>
      <trkpt lat="45.12642" lon="4.62371">
        <ele>783</ele>
        <time>2019-10-12T15:58:41 02:00</time>
      </trkpt>
      <trkpt lat="45.12701" lon="4.6227">
        <ele>787</ele>
        <time>2019-10-12T15:58:46 02:00</time>
      </trkpt>
      <trkpt lat="45.12745" lon="4.62214">
        <ele>782</ele>
        <time>2019-10-12T15:58:51 02:00</time>
      </trkpt>
      <trkpt lat="45.12768" lon="4.62163">
        <ele>781</ele>
        <time>2019-10-12T15:58:56 02:00</time>
      </trkpt>
      <trkpt lat="45.1278" lon="4.62137">
        <ele>779</ele>
        <time>2019-10-12T15:59:01 02:00</time>
      </trkpt>
      <trkpt lat="45.12806" lon="4.62128">
        <ele>771</ele>
        <time>2019-10-12T15:59:06 02:00</time>
      </trkpt>
      <trkpt lat="45.12814" lon="4.62082">
        <ele>771</ele>
        <time>2019-10-12T15:59:11 02:00</time>
      </trkpt>
      <trkpt lat="45.12846" lon="4.61986">
        <ele>766</ele>
        <time>2019-10-12T15:59:16 02:00</time>
      </trkpt>
      <trkpt lat="45.1289" lon="4.61912">
        <ele>766</ele>
        <time>2019-10-12T15:59:21 02:00</time>
      </trkpt>
      <trkpt lat="45.12928" lon="4.61854">
        <ele>766</ele>
        <time>2019-10-12T15:59:26 02:00</time>
      </trkpt>
      <trkpt lat="45.12944" lon="4.61853">
        <ele>765</ele>
        <time>2019-10-12T15:59:31 02:00</time>
      </trkpt>
      <trkpt lat="45.12976" lon="4.6187">
        <ele>762</ele>
        <time>2019-10-12T15:59:36 02:00</time>
      </trkpt>
      <trkpt lat="45.12967" lon="4.61831">
        <ele>764</ele>
        <time>2019-10-12T15:59:41 02:00</time>
      </trkpt>
      <trkpt lat="45.12943" lon="4.61765">
        <ele>766</ele>
        <time>2019-10-12T15:59:46 02:00</time>
      </trkpt>
      <trkpt lat="45.12922" lon="4.61695">
        <ele>774</ele>
        <time>2019-10-12T15:59:51 02:00</time>
      </trkpt>
      <trkpt lat="45.12913" lon="4.61636">
        <ele>779</ele>
        <time>2019-10-12T15:59:56 02:00</time>
      </trkpt>
      <trkpt lat="45.12916" lon="4.61575">
        <ele>779</ele>
        <time>2019-10-12T16:00:01 02:00</time>
      </trkpt>
      <trkpt lat="45.12936" lon="4.61439">
        <ele>786</ele>
        <time>2019-10-12T16:00:06 02:00</time>
      </trkpt>
      <trkpt lat="45.12949" lon="4.61328">
        <ele>794</ele>
        <time>2019-10-12T16:00:11 02:00</time>
      </trkpt>
      <trkpt lat="45.12957" lon="4.61291">
        <ele>798</ele>
        <time>2019-10-12T16:00:16 02:00</time>
      </trkpt>
      <trkpt lat="45.12969" lon="4.6129">
        <ele>799</ele>
        <time>2019-10-12T16:00:21 02:00</time>
      </trkpt>
      <trkpt lat="45.13007" lon="4.61358">
        <ele>792</ele>
        <time>2019-10-12T16:00:26 02:00</time>
      </trkpt>
      <trkpt lat="45.13041" lon="4.61434">
        <ele>792</ele>
        <time>2019-10-12T16:00:31 02:00</time>
      </trkpt>
      <trkpt lat="45.13087" lon="4.61519">
        <ele>790</ele>
        <time>2019-10-12T16:00:36 02:00</time>
      </trkpt>
      <trkpt lat="45.13149" lon="4.61558">
        <ele>792</ele>
        <time>2019-10-12T16:00:41 02:00</time>
      </trkpt>
      <trkpt lat="45.13205" lon="4.61622">
        <ele>792</ele>
        <time>2019-10-12T16:00:46 02:00</time>
      </trkpt>
      <trkpt lat="45.13304" lon="4.61728">
        <ele>797</ele>
        <time>2019-10-12T16:00:51 02:00</time>
      </trkpt>
      <trkpt lat="45.13343" lon="4.61782">
        <ele>798</ele>
        <time>2019-10-12T16:00:56 02:00</time>
      </trkpt>
      <trkpt lat="45.13388" lon="4.61819">
        <ele>801</ele>
        <time>2019-10-12T16:01:01 02:00</time>
      </trkpt>
      <trkpt lat="45.13522" lon="4.61896">
        <ele>807</ele>
        <time>2019-10-12T16:01:06 02:00</time>
      </trkpt>
      <trkpt lat="45.13563" lon="4.61948">
        <ele>811</ele>
        <time>2019-10-12T16:01:11 02:00</time>
      </trkpt>
      <trkpt lat="45.13596" lon="4.62013">
        <ele>816</ele>
        <time>2019-10-12T16:01:16 02:00</time>
      </trkpt>
      <trkpt lat="45.13596" lon="4.62047">
        <ele>819</ele>
        <time>2019-10-12T16:01:21 02:00</time>
      </trkpt>
      <trkpt lat="45.1358" lon="4.62069">
        <ele>818</ele>
        <time>2019-10-12T16:01:26 02:00</time>
      </trkpt>
      <trkpt lat="45.13548" lon="4.62083">
        <ele>815</ele>
        <time>2019-10-12T16:01:31 02:00</time>
      </trkpt>
      <trkpt lat="45.13473" lon="4.62139">
        <ele>811</ele>
        <time>2019-10-12T16:01:36 02:00</time>
      </trkpt>
      <trkpt lat="45.13438" lon="4.6219">
        <ele>812</ele>
        <time>2019-10-12T16:01:41 02:00</time>
      </trkpt>
      <trkpt lat="45.13431" lon="4.62212">
        <ele>812</ele>
        <time>2019-10-12T16:01:46 02:00</time>
      </trkpt>
      <trkpt lat="45.1344" lon="4.6226">
        <ele>815</ele>
        <time>2019-10-12T16:01:51 02:00</time>
      </trkpt>
      <trkpt lat="45.1342" lon="4.62345">
        <ele>811</ele>
        <time>2019-10-12T16:01:56 02:00</time>
      </trkpt>
      <trkpt lat="45.13407" lon="4.62389">
        <ele>812</ele>
        <time>2019-10-12T16:02:01 02:00</time>
      </trkpt>
      <trkpt lat="45.13382" lon="4.62423">
        <ele>806</ele>
        <time>2019-10-12T16:02:06 02:00</time>
      </trkpt>
      <trkpt lat="45.13362" lon="4.62463">
        <ele>802</ele>
        <time>2019-10-12T16:02:11 02:00</time>
      </trkpt>
      <trkpt lat="45.13326" lon="4.62593">
        <ele>793</ele>
        <time>2019-10-12T16:02:16 02:00</time>
      </trkpt>
      <trkpt lat="45.13328" lon="4.62643">
        <ele>789</ele>
        <time>2019-10-12T16:02:21 02:00</time>
      </trkpt>
      <trkpt lat="45.13414" lon="4.62761">
        <ele>785</ele>
        <time>2019-10-12T16:02:26 02:00</time>
      </trkpt>
      <trkpt lat="45.13477" lon="4.62875">
        <ele>771</ele>
        <time>2019-10-12T16:02:31 02:00</time>
      </trkpt>
      <trkpt lat="45.13521" lon="4.62919">
        <ele>766</ele>
        <time>2019-10-12T16:02:36 02:00</time>
      </trkpt>
      <trkpt lat="45.13569" lon="4.62925">
        <ele>770</ele>
        <time>2019-10-12T16:02:41 02:00</time>
      </trkpt>
      <trkpt lat="45.13624" lon="4.62944">
        <ele>773</ele>
        <time>2019-10-12T16:02:46 02:00</time>
      </trkpt>
      <trkpt lat="45.13656" lon="4.62973">
        <ele>772</ele>
        <time>2019-10-12T16:02:51 02:00</time>
      </trkpt>
      <trkpt lat="45.13704" lon="4.63109">
        <ele>760</ele>
        <time>2019-10-12T16:02:56 02:00</time>
      </trkpt>
      <trkpt lat="45.13775" lon="4.63271">
        <ele>751</ele>
        <time>2019-10-12T16:03:01 02:00</time>
      </trkpt>
      <trkpt lat="45.13804" lon="4.63344">
        <ele>744</ele>
        <time>2019-10-12T16:03:06 02:00</time>
      </trkpt>
      <trkpt lat="45.13846" lon="4.63407">
        <ele>740</ele>
        <time>2019-10-12T16:03:11 02:00</time>
      </trkpt>
      <trkpt lat="45.13882" lon="4.63454">
        <ele>733</ele>
        <time>2019-10-12T16:03:16 02:00</time>
      </trkpt>
      <trkpt lat="45.13909" lon="4.63467">
        <ele>735</ele>
        <time>2019-10-12T16:03:21 02:00</time>
      </trkpt>
      <trkpt lat="45.14059" lon="4.63586">
        <ele>715</ele>
        <time>2019-10-12T16:03:26 02:00</time>
      </trkpt>
      <trkpt lat="45.14121" lon="4.63613">
        <ele>710</ele>
        <time>2019-10-12T16:03:31 02:00</time>
      </trkpt>
      <trkpt lat="45.14073" lon="4.63638">
        <ele>708</ele>
        <time>2019-10-12T16:03:36 02:00</time>
      </trkpt>
      <trkpt lat="45.14026" lon="4.6365">
        <ele>704</ele>
        <time>2019-10-12T16:03:41 02:00</time>
      </trkpt>
      <trkpt lat="45.13962" lon="4.63629">
        <ele>698</ele>
        <time>2019-10-12T16:03:46 02:00</time>
      </trkpt>
      <trkpt lat="45.13886" lon="4.63556">
        <ele>699</ele>
        <time>2019-10-12T16:03:51 02:00</time>
      </trkpt>
      <trkpt lat="45.13783" lon="4.63523">
        <ele>688</ele>
        <time>2019-10-12T16:03:56 02:00</time>
      </trkpt>
      <trkpt lat="45.13632" lon="4.63383">
        <ele>680</ele>
        <time>2019-10-12T16:04:01 02:00</time>
      </trkpt>
      <trkpt lat="45.13605" lon="4.63362">
        <ele>678</ele>
        <time>2019-10-12T16:04:06 02:00</time>
      </trkpt>
      <trkpt lat="45.13578" lon="4.63363">
        <ele>671</ele>
        <time>2019-10-12T16:04:11 02:00</time>
      </trkpt>
      <trkpt lat="45.13569" lon="4.63403">
        <ele>663</ele>
        <time>2019-10-12T16:04:16 02:00</time>
      </trkpt>
      <trkpt lat="45.13584" lon="4.63449">
        <ele>657</ele>
        <time>2019-10-12T16:04:21 02:00</time>
      </trkpt>
      <trkpt lat="45.13587" lon="4.63469">
        <ele>654</ele>
        <time>2019-10-12T16:04:26 02:00</time>
      </trkpt>
      <trkpt lat="45.13545" lon="4.6346">
        <ele>649</ele>
        <time>2019-10-12T16:04:31 02:00</time>
      </trkpt>
      <trkpt lat="45.13532" lon="4.63469">
        <ele>646</ele>
        <time>2019-10-12T16:04:36 02:00</time>
      </trkpt>
      <trkpt lat="45.1356" lon="4.63582">
        <ele>633</ele>
        <time>2019-10-12T16:04:41 02:00</time>
      </trkpt>
      <trkpt lat="45.13567" lon="4.6366">
        <ele>624</ele>
        <time>2019-10-12T16:04:46 02:00</time>
      </trkpt>
      <trkpt lat="45.13535" lon="4.63753">
        <ele>612</ele>
        <time>2019-10-12T16:04:51 02:00</time>
      </trkpt>
      <trkpt lat="45.13457" lon="4.63782">
        <ele>601</ele>
        <time>2019-10-12T16:04:56 02:00</time>
      </trkpt>
      <trkpt lat="45.13379" lon="4.63806">
        <ele>590</ele>
        <time>2019-10-12T16:05:01 02:00</time>
      </trkpt>
      <trkpt lat="45.13289" lon="4.63784">
        <ele>582</ele>
        <time>2019-10-12T16:05:06 02:00</time>
      </trkpt>
      <trkpt lat="45.1324" lon="4.63817">
        <ele>575</ele>
        <time>2019-10-12T16:05:11 02:00</time>
      </trkpt>
      <trkpt lat="45.1319" lon="4.63866">
        <ele>570</ele>
        <time>2019-10-12T16:05:16 02:00</time>
      </trkpt>
      <trkpt lat="45.13171" lon="4.63907">
        <ele>569</ele>
        <time>2019-10-12T16:05:21 02:00</time>
      </trkpt>
      <trkpt lat="45.132" lon="4.63992">
        <ele>562</ele>
        <time>2019-10-12T16:05:26 02:00</time>
      </trkpt>
      <trkpt lat="45.13222" lon="4.64044">
        <ele>558</ele>
        <time>2019-10-12T16:05:31 02:00</time>
      </trkpt>
      <trkpt lat="45.13232" lon="4.64132">
        <ele>551</ele>
        <time>2019-10-12T16:05:36 02:00</time>
      </trkpt>
      <trkpt lat="45.1324" lon="4.64156">
        <ele>549</ele>
        <time>2019-10-12T16:05:41 02:00</time>
      </trkpt>
      <trkpt lat="45.13254" lon="4.64176">
        <ele>549</ele>
        <time>2019-10-12T16:05:46 02:00</time>
      </trkpt>
      <trkpt lat="45.13272" lon="4.64173">
        <ele>553</ele>
        <time>2019-10-12T16:05:51 02:00</time>
      </trkpt>
      <trkpt lat="45.13273" lon="4.64178">
        <ele>553</ele>
        <time>2019-10-12T16:05:56 02:00</time>
      </trkpt>
      <trkpt lat="45.13234" lon="4.64224">
        <ele>545</ele>
        <time>2019-10-12T16:06:01 02:00</time>
      </trkpt>
      <trkpt lat="45.1324" lon="4.64245">
        <ele>544</ele>
        <time>2019-10-12T16:06:06 02:00</time>
      </trkpt>
      <trkpt lat="45.13228" lon="4.64308">
        <ele>544</ele>
        <time>2019-10-12T16:06:11 02:00</time>
      </trkpt>
      <trkpt lat="45.13249" lon="4.64371">
        <ele>542</ele>
        <time>2019-10-12T16:06:16 02:00</time>
      </trkpt>
      <trkpt lat="45.13287" lon="4.64436">
        <ele>543</ele>
        <time>2019-10-12T16:06:21 02:00</time>
      </trkpt>
      <trkpt lat="45.13316" lon="4.64506">
        <ele>544</ele>
        <time>2019-10-12T16:06:26 02:00</time>
      </trkpt>
      <trkpt lat="45.13325" lon="4.64587">
        <ele>546</ele>
        <time>2019-10-12T16:06:31 02:00</time>
      </trkpt>
      <trkpt lat="45.1337" lon="4.64737">
        <ele>547</ele>
        <time>2019-10-12T16:06:36 02:00</time>
      </trkpt>
      <trkpt lat="45.13422" lon="4.64821">
        <ele>544</ele>
        <time>2019-10-12T16:06:41 02:00</time>
      </trkpt>
      <trkpt lat="45.13311" lon="4.64952">
        <ele>564</ele>
        <time>2019-10-12T16:06:46 02:00</time>
      </trkpt>
      <trkpt lat="45.13287" lon="4.64978">
        <ele>569</ele>
        <time>2019-10-12T16:06:51 02:00</time>
      </trkpt>
      <trkpt lat="45.13271" lon="4.64991">
        <ele>571</ele>
        <time>2019-10-12T16:06:56 02:00</time>
      </trkpt>
      <trkpt lat="45.13233" lon="4.65007">
        <ele>574</ele>
        <time>2019-10-12T16:07:01 02:00</time>
      </trkpt>
      <trkpt lat="45.13215" lon="4.65013">
        <ele>574</ele>
        <time>2019-10-12T16:07:06 02:00</time>
      </trkpt>
      <trkpt lat="45.13197" lon="4.6502">
        <ele>574</ele>
        <time>2019-10-12T16:07:11 02:00</time>
      </trkpt>
      <trkpt lat="45.13187" lon="4.6501">
        <ele>573</ele>
        <time>2019-10-12T16:07:16 02:00</time>
      </trkpt>
      <trkpt lat="45.13179" lon="4.64964">
        <ele>572</ele>
        <time>2019-10-12T16:07:21 02:00</time>
      </trkpt>
      <trkpt lat="45.1312" lon="4.64968">
        <ele>570</ele>
        <time>2019-10-12T16:07:26 02:00</time>
      </trkpt>
      <trkpt lat="45.13046" lon="4.64942">
        <ele>568</ele>
        <time>2019-10-12T16:07:31 02:00</time>
      </trkpt>
      <trkpt lat="45.13018" lon="4.64941">
        <ele>566</ele>
        <time>2019-10-12T16:07:36 02:00</time>
      </trkpt>
      <trkpt lat="45.12991" lon="4.64961">
        <ele>563</ele>
        <time>2019-10-12T16:07:41 02:00</time>
      </trkpt>
      <trkpt lat="45.12981" lon="4.65072">
        <ele>554</ele>
        <time>2019-10-12T16:07:46 02:00</time>
      </trkpt>
      <trkpt lat="45.12972" lon="4.65205">
        <ele>541</ele>
        <time>2019-10-12T16:07:51 02:00</time>
      </trkpt>
      <trkpt lat="45.12961" lon="4.65263">
        <ele>535</ele>
        <time>2019-10-12T16:07:56 02:00</time>
      </trkpt>
      <trkpt lat="45.12944" lon="4.65323">
        <ele>531</ele>
        <time>2019-10-12T16:08:01 02:00</time>
      </trkpt>
      <trkpt lat="45.12908" lon="4.65349">
        <ele>528</ele>
        <time>2019-10-12T16:08:06 02:00</time>
      </trkpt>
      <trkpt lat="45.12887" lon="4.65391">
        <ele>520</ele>
        <time>2019-10-12T16:08:11 02:00</time>
      </trkpt>
      <trkpt lat="45.12897" lon="4.65443">
        <ele>514</ele>
        <time>2019-10-12T16:08:16 02:00</time>
      </trkpt>
      <trkpt lat="45.12931" lon="4.65459">
        <ele>516</ele>
        <time>2019-10-12T16:08:21 02:00</time>
      </trkpt>
      <trkpt lat="45.12962" lon="4.65448">
        <ele>519</ele>
        <time>2019-10-12T16:08:26 02:00</time>
      </trkpt>
      <trkpt lat="45.12988" lon="4.65562">
        <ele>511</ele>
        <time>2019-10-12T16:08:31 02:00</time>
      </trkpt>
      <trkpt lat="45.12995" lon="4.65637">
        <ele>505</ele>
        <time>2019-10-12T16:08:36 02:00</time>
      </trkpt>
      <trkpt lat="45.12996" lon="4.65711">
        <ele>494</ele>
        <time>2019-10-12T16:08:41 02:00</time>
      </trkpt>
      <trkpt lat="45.1304" lon="4.658">
        <ele>490</ele>
        <time>2019-10-12T16:08:46 02:00</time>
      </trkpt>
      <trkpt lat="45.13114" lon="4.65902">
        <ele>484</ele>
        <time>2019-10-12T16:08:51 02:00</time>
      </trkpt>
      <trkpt lat="45.13037" lon="4.65907">
        <ele>467</ele>
        <time>2019-10-12T16:08:56 02:00</time>
      </trkpt>
      <trkpt lat="45.12997" lon="4.65873">
        <ele>465</ele>
        <time>2019-10-12T16:09:01 02:00</time>
      </trkpt>
      <trkpt lat="45.12958" lon="4.6583">
        <ele>464</ele>
        <time>2019-10-12T16:09:06 02:00</time>
      </trkpt>
      <trkpt lat="45.12936" lon="4.65811">
        <ele>462</ele>
        <time>2019-10-12T16:09:11 02:00</time>
      </trkpt>
      <trkpt lat="45.12918" lon="4.65781">
        <ele>461</ele>
        <time>2019-10-12T16:09:16 02:00</time>
      </trkpt>
      <trkpt lat="45.12884" lon="4.65733">
        <ele>468</ele>
        <time>2019-10-12T16:09:21 02:00</time>
      </trkpt>
      <trkpt lat="45.12867" lon="4.65697">
        <ele>471</ele>
        <time>2019-10-12T16:09:26 02:00</time>
      </trkpt>
      <trkpt lat="45.12849" lon="4.65672">
        <ele>470</ele>
        <time>2019-10-12T16:09:31 02:00</time>
      </trkpt>
      <trkpt lat="45.12832" lon="4.65665">
        <ele>467</ele>
        <time>2019-10-12T16:09:36 02:00</time>
      </trkpt>
      <trkpt lat="45.12807" lon="4.65674">
        <ele>469</ele>
        <time>2019-10-12T16:09:41 02:00</time>
      </trkpt>
      <trkpt lat="45.12781" lon="4.65683">
        <ele>472</ele>
        <time>2019-10-12T16:09:46 02:00</time>
      </trkpt>
      <trkpt lat="45.12757" lon="4.6569">
        <ele>475</ele>
        <time>2019-10-12T16:09:51 02:00</time>
      </trkpt>
      <trkpt lat="45.12717" lon="4.65693">
        <ele>484</ele>
        <time>2019-10-12T16:09:56 02:00</time>
      </trkpt>
      <trkpt lat="45.1273" lon="4.65666">
        <ele>478</ele>
        <time>2019-10-12T16:10:01 02:00</time>
      </trkpt>
      <trkpt lat="45.12729" lon="4.65641">
        <ele>477</ele>
        <time>2019-10-12T16:10:06 02:00</time>
      </trkpt>
      <trkpt lat="45.12716" lon="4.6562">
        <ele>479</ele>
        <time>2019-10-12T16:10:11 02:00</time>
      </trkpt>
      <trkpt lat="45.12685" lon="4.65589">
        <ele>484</ele>
        <time>2019-10-12T16:10:16 02:00</time>
      </trkpt>
      <trkpt lat="45.1266" lon="4.65571">
        <ele>489</ele>
        <time>2019-10-12T16:10:21 02:00</time>
      </trkpt>
      <trkpt lat="45.1266" lon="4.65605">
        <ele>491</ele>
        <time>2019-10-12T16:10:26 02:00</time>
      </trkpt>
      <trkpt lat="45.12663" lon="4.65636">
        <ele>492</ele>
        <time>2019-10-12T16:10:31 02:00</time>
      </trkpt>
      <trkpt lat="45.12661" lon="4.6566">
        <ele>494</ele>
        <time>2019-10-12T16:10:36 02:00</time>
      </trkpt>
      <trkpt lat="45.12635" lon="4.65683">
        <ele>500</ele>
        <time>2019-10-12T16:10:41 02:00</time>
      </trkpt>
      <trkpt lat="45.12615" lon="4.65683">
        <ele>504</ele>
        <time>2019-10-12T16:10:46 02:00</time>
      </trkpt>
      <trkpt lat="45.12588" lon="4.65677">
        <ele>509</ele>
        <time>2019-10-12T16:10:51 02:00</time>
      </trkpt>
      <trkpt lat="45.12559" lon="4.65686">
        <ele>516</ele>
        <time>2019-10-12T16:10:56 02:00</time>
      </trkpt>
      <trkpt lat="45.12542" lon="4.6569">
        <ele>519</ele>
        <time>2019-10-12T16:11:01 02:00</time>
      </trkpt>
      <trkpt lat="45.1251" lon="4.65678">
        <ele>525</ele>
        <time>2019-10-12T16:11:06 02:00</time>
      </trkpt>
      <trkpt lat="45.12474" lon="4.65669">
        <ele>531</ele>
        <time>2019-10-12T16:11:11 02:00</time>
      </trkpt>
      <trkpt lat="45.12477" lon="4.65687">
        <ele>531</ele>
        <time>2019-10-12T16:11:16 02:00</time>
      </trkpt>
      <trkpt lat="45.12468" lon="4.65691">
        <ele>533</ele>
        <time>2019-10-12T16:11:21 02:00</time>
      </trkpt>
      <trkpt lat="45.12449" lon="4.65678">
        <ele>535</ele>
        <time>2019-10-12T16:11:26 02:00</time>
      </trkpt>
      <trkpt lat="45.1244" lon="4.65694">
        <ele>538</ele>
        <time>2019-10-12T16:11:31 02:00</time>
      </trkpt>
      <trkpt lat="45.12442" lon="4.65738">
        <ele>540</ele>
        <time>2019-10-12T16:11:36 02:00</time>
      </trkpt>
      <trkpt lat="45.1243" lon="4.6578">
        <ele>545</ele>
        <time>2019-10-12T16:11:41 02:00</time>
      </trkpt>
      <trkpt lat="45.12409" lon="4.65828">
        <ele>551</ele>
        <time>2019-10-12T16:11:46 02:00</time>
      </trkpt>
      <trkpt lat="45.12405" lon="4.65845">
        <ele>553</ele>
        <time>2019-10-12T16:11:51 02:00</time>
      </trkpt>
      <trkpt lat="45.12372" lon="4.65806">
        <ele>558</ele>
        <time>2019-10-12T16:11:56 02:00</time>
      </trkpt>
      <trkpt lat="45.12344" lon="4.65787">
        <ele>562</ele>
        <time>2019-10-12T16:12:01 02:00</time>
      </trkpt>
      <trkpt lat="45.1231" lon="4.65777">
        <ele>570</ele>
        <time>2019-10-12T16:12:06 02:00</time>
      </trkpt>
      <trkpt lat="45.12315" lon="4.65808">
        <ele>571</ele>
        <time>2019-10-12T16:12:11 02:00</time>
      </trkpt>
      <trkpt lat="45.12317" lon="4.65861">
        <ele>573</ele>
        <time>2019-10-12T16:12:16 02:00</time>
      </trkpt>
      <trkpt lat="45.12309" lon="4.65884">
        <ele>576</ele>
        <time>2019-10-12T16:12:21 02:00</time>
      </trkpt>
      <trkpt lat="45.123" lon="4.65885">
        <ele>578</ele>
        <time>2019-10-12T16:12:26 02:00</time>
      </trkpt>
      <trkpt lat="45.12258" lon="4.65848">
        <ele>588</ele>
        <time>2019-10-12T16:12:31 02:00</time>
      </trkpt>
      <trkpt lat="45.12246" lon="4.65836">
        <ele>590</ele>
        <time>2019-10-12T16:12:36 02:00</time>
      </trkpt>
      <trkpt lat="45.12241" lon="4.65831">
        <ele>591</ele>
        <time>2019-10-12T16:12:41 02:00</time>
      </trkpt>
      <trkpt lat="45.12226" lon="4.65911">
        <ele>599</ele>
        <time>2019-10-12T16:12:46 02:00</time>
      </trkpt>
      <trkpt lat="45.12217" lon="4.65957">
        <ele>601</ele>
        <time>2019-10-12T16:12:51 02:00</time>
      </trkpt>
      <trkpt lat="45.12184" lon="4.65987">
        <ele>610</ele>
        <time>2019-10-12T16:12:56 02:00</time>
      </trkpt>
      <trkpt lat="45.12172" lon="4.65993">
        <ele>613</ele>
        <time>2019-10-12T16:13:01 02:00</time>
      </trkpt>
      <trkpt lat="45.12167" lon="4.66019">
        <ele>613</ele>
        <time>2019-10-12T16:13:06 02:00</time>
      </trkpt>
      <trkpt lat="45.12141" lon="4.66031">
        <ele>619</ele>
        <time>2019-10-12T16:13:11 02:00</time>
      </trkpt>
      <trkpt lat="45.1213" lon="4.66051">
        <ele>621</ele>
        <time>2019-10-12T16:13:16 02:00</time>
      </trkpt>
      <trkpt lat="45.12096" lon="4.66025">
        <ele>629</ele>
        <time>2019-10-12T16:13:21 02:00</time>
      </trkpt>
      <trkpt lat="45.12084" lon="4.65997">
        <ele>633</ele>
        <time>2019-10-12T16:13:26 02:00</time>
      </trkpt>
      <trkpt lat="45.12089" lon="4.65965">
        <ele>631</ele>
        <time>2019-10-12T16:13:31 02:00</time>
      </trkpt>
      <trkpt lat="45.12084" lon="4.65928">
        <ele>632</ele>
        <time>2019-10-12T16:13:36 02:00</time>
      </trkpt>
      <trkpt lat="45.12066" lon="4.65916">
        <ele>636</ele>
        <time>2019-10-12T16:13:41 02:00</time>
      </trkpt>
      <trkpt lat="45.12036" lon="4.65912">
        <ele>644</ele>
        <time>2019-10-12T16:13:46 02:00</time>
      </trkpt>
      <trkpt lat="45.12009" lon="4.65862">
        <ele>649</ele>
        <time>2019-10-12T16:13:51 02:00</time>
      </trkpt>
      <trkpt lat="45.11992" lon="4.65807">
        <ele>653</ele>
        <time>2019-10-12T16:13:56 02:00</time>
      </trkpt>
      <trkpt lat="45.11978" lon="4.65774">
        <ele>656</ele>
        <time>2019-10-12T16:14:01 02:00</time>
      </trkpt>
      <trkpt lat="45.11963" lon="4.65749">
        <ele>659</ele>
        <time>2019-10-12T16:14:06 02:00</time>
      </trkpt>
      <trkpt lat="45.11946" lon="4.65703">
        <ele>664</ele>
        <time>2019-10-12T16:14:11 02:00</time>
      </trkpt>
      <trkpt lat="45.11935" lon="4.65602">
        <ele>669</ele>
        <time>2019-10-12T16:14:16 02:00</time>
      </trkpt>
      <trkpt lat="45.11926" lon="4.65544">
        <ele>671</ele>
        <time>2019-10-12T16:14:21 02:00</time>
      </trkpt>
      <trkpt lat="45.11907" lon="4.65518">
        <ele>674</ele>
        <time>2019-10-12T16:14:26 02:00</time>
      </trkpt>
      <trkpt lat="45.11883" lon="4.65515">
        <ele>677</ele>
        <time>2019-10-12T16:14:31 02:00</time>
      </trkpt>
      <trkpt lat="45.11844" lon="4.65529">
        <ele>685</ele>
        <time>2019-10-12T16:14:36 02:00</time>
      </trkpt>
      <trkpt lat="45.11824" lon="4.65543">
        <ele>689</ele>
        <time>2019-10-12T16:14:41 02:00</time>
      </trkpt>
      <trkpt lat="45.11814" lon="4.65545">
        <ele>691</ele>
        <time>2019-10-12T16:14:46 02:00</time>
      </trkpt>
      <trkpt lat="45.118" lon="4.65553">
        <ele>693</ele>
        <time>2019-10-12T16:14:51 02:00</time>
      </trkpt>
      <trkpt lat="45.1179" lon="4.65567">
        <ele>696</ele>
        <time>2019-10-12T16:14:56 02:00</time>
      </trkpt>
      <trkpt lat="45.11782" lon="4.65578">
        <ele>698</ele>
        <time>2019-10-12T16:15:01 02:00</time>
      </trkpt>
      <trkpt lat="45.11758" lon="4.65595">
        <ele>701</ele>
        <time>2019-10-12T16:15:06 02:00</time>
      </trkpt>
      <trkpt lat="45.11747" lon="4.65589">
        <ele>702</ele>
        <time>2019-10-12T16:15:11 02:00</time>
      </trkpt>
      <trkpt lat="45.11741" lon="4.65578">
        <ele>704</ele>
        <time>2019-10-12T16:15:16 02:00</time>
      </trkpt>
      <trkpt lat="45.11727" lon="4.65557">
        <ele>706</ele>
        <time>2019-10-12T16:15:21 02:00</time>
      </trkpt>
      <trkpt lat="45.11696" lon="4.65521">
        <ele>713</ele>
        <time>2019-10-12T16:15:26 02:00</time>
      </trkpt>
      <trkpt lat="45.11661" lon="4.6547">
        <ele>721</ele>
        <time>2019-10-12T16:15:31 02:00</time>
      </trkpt>
      <trkpt lat="45.11645" lon="4.65435">
        <ele>724</ele>
        <time>2019-10-12T16:15:36 02:00</time>
      </trkpt>
      <trkpt lat="45.11637" lon="4.65413">
        <ele>725</ele>
        <time>2019-10-12T16:15:41 02:00</time>
      </trkpt>
      <trkpt lat="45.11621" lon="4.65398">
        <ele>730</ele>
        <time>2019-10-12T16:15:46 02:00</time>
      </trkpt>
      <trkpt lat="45.11599" lon="4.6537">
        <ele>735</ele>
        <time>2019-10-12T16:15:51 02:00</time>
      </trkpt>
      <trkpt lat="45.11578" lon="4.65326">
        <ele>737</ele>
        <time>2019-10-12T16:15:56 02:00</time>
      </trkpt>
      <trkpt lat="45.11555" lon="4.65255">
        <ele>737</ele>
        <time>2019-10-12T16:16:01 02:00</time>
      </trkpt>
      <trkpt lat="45.11553" lon="4.65241">
        <ele>738</ele>
        <time>2019-10-12T16:16:06 02:00</time>
      </trkpt>
      <trkpt lat="45.11577" lon="4.65193">
        <ele>734</ele>
        <time>2019-10-12T16:16:11 02:00</time>
      </trkpt>
      <trkpt lat="45.11606" lon="4.65144">
        <ele>732</ele>
        <time>2019-10-12T16:16:16 02:00</time>
      </trkpt>
      <trkpt lat="45.11611" lon="4.65112">
        <ele>733</ele>
        <time>2019-10-12T16:16:21 02:00</time>
      </trkpt>
      <trkpt lat="45.11607" lon="4.65081">
        <ele>736</ele>
        <time>2019-10-12T16:16:26 02:00</time>
      </trkpt>
      <trkpt lat="45.11601" lon="4.65054">
        <ele>738</ele>
        <time>2019-10-12T16:16:31 02:00</time>
      </trkpt>
      <trkpt lat="45.11586" lon="4.65076">
        <ele>742</ele>
        <time>2019-10-12T16:16:36 02:00</time>
      </trkpt>
      <trkpt lat="45.11567" lon="4.65072">
        <ele>746</ele>
        <time>2019-10-12T16:16:41 02:00</time>
      </trkpt>
      <trkpt lat="45.11553" lon="4.65028">
        <ele>750</ele>
        <time>2019-10-12T16:16:46 02:00</time>
      </trkpt>
      <trkpt lat="45.11507" lon="4.64958">
        <ele>758</ele>
        <time>2019-10-12T16:16:51 02:00</time>
      </trkpt>
      <trkpt lat="45.11462" lon="4.64885">
        <ele>766</ele>
        <time>2019-10-12T16:16:56 02:00</time>
      </trkpt>
      <trkpt lat="45.11414" lon="4.64835">
        <ele>776</ele>
        <time>2019-10-12T16:17:01 02:00</time>
      </trkpt>
      <trkpt lat="45.11391" lon="4.6482">
        <ele>780</ele>
        <time>2019-10-12T16:17:06 02:00</time>
      </trkpt>
      <trkpt lat="45.11375" lon="4.64808">
        <ele>783</ele>
        <time>2019-10-12T16:17:11 02:00</time>
      </trkpt>
      <trkpt lat="45.11343" lon="4.6473">
        <ele>787</ele>
        <time>2019-10-12T16:17:16 02:00</time>
      </trkpt>
      <trkpt lat="45.11328" lon="4.64679">
        <ele>789</ele>
        <time>2019-10-12T16:17:21 02:00</time>
      </trkpt>
      <trkpt lat="45.11338" lon="4.64619">
        <ele>788</ele>
        <time>2019-10-12T16:17:26 02:00</time>
      </trkpt>
      <trkpt lat="45.11354" lon="4.64568">
        <ele>787</ele>
        <time>2019-10-12T16:17:31 02:00</time>
      </trkpt>
      <trkpt lat="45.1133" lon="4.64562">
        <ele>789</ele>
        <time>2019-10-12T16:17:36 02:00</time>
      </trkpt>
      <trkpt lat="45.11272" lon="4.64587">
        <ele>796</ele>
        <time>2019-10-12T16:17:41 02:00</time>
      </trkpt>
      <trkpt lat="45.11142" lon="4.64665">
        <ele>810</ele>
        <time>2019-10-12T16:17:46 02:00</time>
      </trkpt>
      <trkpt lat="45.11091" lon="4.64736">
        <ele>812</ele>
        <time>2019-10-12T16:17:51 02:00</time>
      </trkpt>
      <trkpt lat="45.11059" lon="4.64762">
        <ele>806</ele>
        <time>2019-10-12T16:17:56 02:00</time>
      </trkpt>
      <trkpt lat="45.11053" lon="4.64802">
        <ele>800</ele>
        <time>2019-10-12T16:18:01 02:00</time>
      </trkpt>
      <trkpt lat="45.11062" lon="4.64864">
        <ele>796</ele>
        <time>2019-10-12T16:18:06 02:00</time>
      </trkpt>
      <trkpt lat="45.11079" lon="4.64919">
        <ele>796</ele>
        <time>2019-10-12T16:18:11 02:00</time>
      </trkpt>
      <trkpt lat="45.11074" lon="4.64945">
        <ele>792</ele>
        <time>2019-10-12T16:18:16 02:00</time>
      </trkpt>
      <trkpt lat="45.11083" lon="4.65017">
        <ele>790</ele>
        <time>2019-10-12T16:18:21 02:00</time>
      </trkpt>
      <trkpt lat="45.11084" lon="4.65033">
        <ele>789</ele>
        <time>2019-10-12T16:18:26 02:00</time>
      </trkpt>
      <trkpt lat="45.11082" lon="4.6504">
        <ele>787</ele>
        <time>2019-10-12T16:18:31 02:00</time>
      </trkpt>
      <trkpt lat="45.11063" lon="4.64981">
        <ele>786</ele>
        <time>2019-10-12T16:18:36 02:00</time>
      </trkpt>
      <trkpt lat="45.11045" lon="4.64933">
        <ele>784</ele>
        <time>2019-10-12T16:18:41 02:00</time>
      </trkpt>
      <trkpt lat="45.10977" lon="4.64825">
        <ele>779</ele>
        <time>2019-10-12T16:18:46 02:00</time>
      </trkpt>
      <trkpt lat="45.10937" lon="4.6477">
        <ele>780</ele>
        <time>2019-10-12T16:18:51 02:00</time>
      </trkpt>
      <trkpt lat="45.10919" lon="4.64758">
        <ele>779</ele>
        <time>2019-10-12T16:18:56 02:00</time>
      </trkpt>
      <trkpt lat="45.10895" lon="4.64771">
        <ele>778</ele>
        <time>2019-10-12T16:19:01 02:00</time>
      </trkpt>
      <trkpt lat="45.10879" lon="4.64809">
        <ele>772</ele>
        <time>2019-10-12T16:19:06 02:00</time>
      </trkpt>
      <trkpt lat="45.10863" lon="4.64846">
        <ele>765</ele>
        <time>2019-10-12T16:19:11 02:00</time>
      </trkpt>
      <trkpt lat="45.10831" lon="4.64872">
        <ele>761</ele>
        <time>2019-10-12T16:19:16 02:00</time>
      </trkpt>
      <trkpt lat="45.10799" lon="4.64892">
        <ele>760</ele>
        <time>2019-10-12T16:19:21 02:00</time>
      </trkpt>
      <trkpt lat="45.1075" lon="4.64964">
        <ele>749</ele>
        <time>2019-10-12T16:19:26 02:00</time>
      </trkpt>
      <trkpt lat="45.10735" lon="4.65002">
        <ele>742</ele>
        <time>2019-10-12T16:19:31 02:00</time>
      </trkpt>
      <trkpt lat="45.1073" lon="4.65025">
        <ele>738</ele>
        <time>2019-10-12T16:19:36 02:00</time>
      </trkpt>
      <trkpt lat="45.10697" lon="4.65051">
        <ele>735</ele>
        <time>2019-10-12T16:19:41 02:00</time>
      </trkpt>
      <trkpt lat="45.10629" lon="4.65031">
        <ele>736</ele>
        <time>2019-10-12T16:19:46 02:00</time>
      </trkpt>
      <trkpt lat="45.1055" lon="4.64972">
        <ele>730</ele>
        <time>2019-10-12T16:19:51 02:00</time>
      </trkpt>
      <trkpt lat="45.10525" lon="4.64924">
        <ele>725</ele>
        <time>2019-10-12T16:19:56 02:00</time>
      </trkpt>
      <trkpt lat="45.10513" lon="4.64874">
        <ele>718</ele>
        <time>2019-10-12T16:20:01 02:00</time>
      </trkpt>
      <trkpt lat="45.10514" lon="4.64781">
        <ele>710</ele>
        <time>2019-10-12T16:20:06 02:00</time>
      </trkpt>
      <trkpt lat="45.10545" lon="4.6465">
        <ele>707</ele>
        <time>2019-10-12T16:20:11 02:00</time>
      </trkpt>
      <trkpt lat="45.10548" lon="4.64602">
        <ele>704</ele>
        <time>2019-10-12T16:20:16 02:00</time>
      </trkpt>
      <trkpt lat="45.10549" lon="4.64566">
        <ele>702</ele>
        <time>2019-10-12T16:20:21 02:00</time>
      </trkpt>
      <trkpt lat="45.10539" lon="4.64524">
        <ele>696</ele>
        <time>2019-10-12T16:20:26 02:00</time>
      </trkpt>
      <trkpt lat="45.10534" lon="4.64522">
        <ele>694</ele>
        <time>2019-10-12T16:20:31 02:00</time>
      </trkpt>
      <trkpt lat="45.10529" lon="4.64538">
        <ele>693</ele>
        <time>2019-10-12T16:20:36 02:00</time>
      </trkpt>
      <trkpt lat="45.10518" lon="4.64541">
        <ele>689</ele>
        <time>2019-10-12T16:20:41 02:00</time>
      </trkpt>
      <trkpt lat="45.10492" lon="4.64537">
        <ele>682</ele>
        <time>2019-10-12T16:20:46 02:00</time>
      </trkpt>
      <trkpt lat="45.10472" lon="4.64507">
        <ele>681</ele>
        <time>2019-10-12T16:20:51 02:00</time>
      </trkpt>
      <trkpt lat="45.10456" lon="4.64485">
        <ele>681</ele>
        <time>2019-10-12T16:20:56 02:00</time>
      </trkpt>
      <trkpt lat="45.1042" lon="4.64501">
        <ele>677</ele>
        <time>2019-10-12T16:21:01 02:00</time>
      </trkpt>
      <trkpt lat="45.10383" lon="4.64545">
        <ele>678</ele>
        <time>2019-10-12T16:21:06 02:00</time>
      </trkpt>
      <trkpt lat="45.10297" lon="4.64676">
        <ele>669</ele>
        <time>2019-10-12T16:21:11 02:00</time>
      </trkpt>
      <trkpt lat="45.10249" lon="4.64723">
        <ele>672</ele>
        <time>2019-10-12T16:21:16 02:00</time>
      </trkpt>
      <trkpt lat="45.10202" lon="4.64776">
        <ele>675</ele>
        <time>2019-10-12T16:21:21 02:00</time>
      </trkpt>
      <trkpt lat="45.10134" lon="4.64886">
        <ele>668</ele>
        <time>2019-10-12T16:21:26 02:00</time>
      </trkpt>
      <trkpt lat="45.10095" lon="4.64913">
        <ele>664</ele>
        <time>2019-10-12T16:21:31 02:00</time>
      </trkpt>
      <trkpt lat="45.10055" lon="4.64929">
        <ele>659</ele>
        <time>2019-10-12T16:21:36 02:00</time>
      </trkpt>
      <trkpt lat="45.10014" lon="4.64934">
        <ele>656</ele>
        <time>2019-10-12T16:21:41 02:00</time>
      </trkpt>
      <trkpt lat="45.0995" lon="4.64913">
        <ele>651</ele>
        <time>2019-10-12T16:21:46 02:00</time>
      </trkpt>
      <trkpt lat="45.09919" lon="4.64903">
        <ele>647</ele>
        <time>2019-10-12T16:21:51 02:00</time>
      </trkpt>
      <trkpt lat="45.09895" lon="4.6493">
        <ele>642</ele>
        <time>2019-10-12T16:21:56 02:00</time>
      </trkpt>
      <trkpt lat="45.09886" lon="4.64908">
        <ele>640</ele>
        <time>2019-10-12T16:22:01 02:00</time>
      </trkpt>
      <trkpt lat="45.09872" lon="4.64924">
        <ele>638</ele>
        <time>2019-10-12T16:22:06 02:00</time>
      </trkpt>
      <trkpt lat="45.09869" lon="4.64867">
        <ele>636</ele>
        <time>2019-10-12T16:22:11 02:00</time>
      </trkpt>
      <trkpt lat="45.09848" lon="4.64833">
        <ele>631</ele>
        <time>2019-10-12T16:22:16 02:00</time>
      </trkpt>
      <trkpt lat="45.09813" lon="4.64805">
        <ele>627</ele>
        <time>2019-10-12T16:22:21 02:00</time>
      </trkpt>
      <trkpt lat="45.09775" lon="4.64768">
        <ele>624</ele>
        <time>2019-10-12T16:22:26 02:00</time>
      </trkpt>
      <trkpt lat="45.09743" lon="4.64719">
        <ele>623</ele>
        <time>2019-10-12T16:22:31 02:00</time>
      </trkpt>
      <trkpt lat="45.09714" lon="4.64648">
        <ele>623</ele>
        <time>2019-10-12T16:22:36 02:00</time>
      </trkpt>
      <trkpt lat="45.09698" lon="4.64613">
        <ele>621</ele>
        <time>2019-10-12T16:22:41 02:00</time>
      </trkpt>
      <trkpt lat="45.09659" lon="4.64614">
        <ele>616</ele>
        <time>2019-10-12T16:22:46 02:00</time>
      </trkpt>
      <trkpt lat="45.09635" lon="4.64601">
        <ele>615</ele>
        <time>2019-10-12T16:22:51 02:00</time>
      </trkpt>
      <trkpt lat="45.09598" lon="4.6459">
        <ele>614</ele>
        <time>2019-10-12T16:22:56 02:00</time>
      </trkpt>
      <trkpt lat="45.09561" lon="4.64598">
        <ele>617</ele>
        <time>2019-10-12T16:23:01 02:00</time>
      </trkpt>
      <trkpt lat="45.09525" lon="4.64591">
        <ele>621</ele>
        <time>2019-10-12T16:23:06 02:00</time>
      </trkpt>
      <trkpt lat="45.09478" lon="4.64555">
        <ele>622</ele>
        <time>2019-10-12T16:23:11 02:00</time>
      </trkpt>
      <trkpt lat="45.09416" lon="4.64545">
        <ele>627</ele>
        <time>2019-10-12T16:23:16 02:00</time>
      </trkpt>
      <trkpt lat="45.09343" lon="4.64539">
        <ele>630</ele>
        <time>2019-10-12T16:23:21 02:00</time>
      </trkpt>
      <trkpt lat="45.09346" lon="4.6459">
        <ele>637</ele>
        <time>2019-10-12T16:23:26 02:00</time>
      </trkpt>
      <trkpt lat="45.09365" lon="4.6465">
        <ele>640</ele>
        <time>2019-10-12T16:23:31 02:00</time>
      </trkpt>
      <trkpt lat="45.09377" lon="4.64724">
        <ele>644</ele>
        <time>2019-10-12T16:23:36 02:00</time>
      </trkpt>
      <trkpt lat="45.09377" lon="4.64842">
        <ele>643</ele>
        <time>2019-10-12T16:23:41 02:00</time>
      </trkpt>
      <trkpt lat="45.09377" lon="4.64963">
        <ele>637</ele>
        <time>2019-10-12T16:23:46 02:00</time>
      </trkpt>
      <trkpt lat="45.09407" lon="4.64964">
        <ele>635</ele>
        <time>2019-10-12T16:23:51 02:00</time>
      </trkpt>
      <trkpt lat="45.09419" lon="4.64974">
        <ele>633</ele>
        <time>2019-10-12T16:23:56 02:00</time>
      </trkpt>
      <trkpt lat="45.09427" lon="4.64995">
        <ele>631</ele>
        <time>2019-10-12T16:24:01 02:00</time>
      </trkpt>
      <trkpt lat="45.0943" lon="4.65023">
        <ele>629</ele>
        <time>2019-10-12T16:24:06 02:00</time>
      </trkpt>
      <trkpt lat="45.0942" lon="4.6505">
        <ele>627</ele>
        <time>2019-10-12T16:24:11 02:00</time>
      </trkpt>
      <trkpt lat="45.09393" lon="4.65067">
        <ele>628</ele>
        <time>2019-10-12T16:24:16 02:00</time>
      </trkpt>
      <trkpt lat="45.094" lon="4.65207">
        <ele>619</ele>
        <time>2019-10-12T16:24:21 02:00</time>
      </trkpt>
    </trkseg>
  </trk>
</gpx>